Time;durP1;ratioP1;P1;durP2;ratioP2;P2;SDS_P1;SDS_P2;PMS_P1;PMS_P2;Temp;Humidity;BMP_temperature;BMP_pressure;BME280_temperature;BME280_humidity;BME280_pressure;Samples;Min_cycle;Max_cycle;Signal;HPM_P1;HPM_P2
2021/11/13 00:00:45;;;;;;;39.03;10.00;;;29.10;84.20;;;;;;5125792;28;20019;-52
2021/11/13 00:03:12;;;;;;;30.75;9.77;;;29.10;84.30;;;;;;5126292;28;20122;-45
2021/11/13 00:05:40;;;;;;;39.80;9.15;;;29.10;84.40;;;;;;5126684;28;20361;-50
2021/11/13 00:08:06;;;;;;;23.38;9.13;;;29.00;84.10;;;;;;5126467;28;20028;-52
2021/11/13 00:10:34;;;;;;;21.90;8.07;;;29.00;83.80;;;;;;5126130;28;20016;-53
2021/11/13 00:13:01;;;;;;;22.52;7.90;;;29.00;83.70;;;;;;5126312;28;20094;-54
2021/11/13 00:15:29;;;;;;;31.52;8.27;;;29.00;83.50;;;;;;5126234;28;20019;-51
2021/11/13 00:17:56;;;;;;;23.58;7.95;;;29.00;83.60;;;;;;5126141;28;20030;-48
2021/11/13 00:20:25;;;;;;;23.48;8.30;;;29.00;83.50;;;;;;5126369;28;20016;-58
2021/11/13 00:22:53;;;;;;;24.40;8.20;;;29.00;83.30;;;;;;5125930;28;20027;-53
2021/11/13 00:25:20;;;;;;;26.73;8.85;;;29.00;83.20;;;;;;5125462;28;20249;-51
2021/11/13 00:27:46;;;;;;;18.55;8.13;;;28.90;83.10;;;;;;5125761;28;20047;-46
2021/11/13 00:30:15;;;;;;;21.65;9.00;;;28.90;82.90;;;;;;5125568;28;20330;-46
2021/11/13 00:32:42;;;;;;;43.75;9.82;;;28.90;82.90;;;;;;5125667;28;20027;-48
2021/11/13 00:35:09;;;;;;;33.50;8.88;;;29.00;82.90;;;;;;5107970;28;20019;-52
2021/11/13 00:37:36;;;;;;;38.05;9.13;;;28.90;82.90;;;;;;5125837;28;20185;-55
2021/11/13 00:40:04;;;;;;;57.90;10.00;;;28.90;82.60;;;;;;5126014;28;20015;-44
2021/11/13 00:42:31;;;;;;;29.02;8.15;;;28.90;82.60;;;;;;5125986;28;20201;-49
2021/11/13 00:44:57;;;;;;;21.45;7.30;;;28.90;82.50;;;;;;5125699;28;20193;-45
2021/11/13 00:47:24;;;;;;;19.08;8.02;;;28.90;82.20;;;;;;5125751;28;20125;-46
2021/11/13 00:49:51;;;;;;;17.73;7.07;;;28.90;82.20;;;;;;5125590;28;20038;-47
2021/11/13 00:52:17;;;;;;;26.08;8.23;;;28.80;82.30;;;;;;5124713;28;20098;-47
2021/11/13 00:54:44;;;;;;;19.77;7.10;;;28.80;82.30;;;;;;5126196;28;20022;-46
2021/11/13 00:57:10;;;;;;;27.45;7.28;;;28.90;82.30;;;;;;5125281;28;20020;-48
2021/11/13 00:59:38;;;;;;;47.38;8.25;;;28.80;82.10;;;;;;5125736;28;20028;-49
2021/11/13 01:02:08;;;;;;;57.30;9.65;;;28.80;81.80;;;;;;5107974;28;20027;-44
2021/11/13 01:04:36;;;;;;;42.08;8.43;;;28.80;82.30;;;;;;5125435;28;20127;-46
2021/11/13 01:07:04;;;;;;;41.58;8.20;;;28.80;81.70;;;;;;5124879;28;20031;-49
2021/11/13 01:09:31;;;;;;;51.05;8.25;;;28.80;81.50;;;;;;5125748;28;20045;-50
2021/11/13 01:11:58;;;;;;;42.85;7.75;;;28.80;81.50;;;;;;5125728;28;20027;-44
2021/11/13 01:14:26;;;;;;;32.40;7.32;;;28.80;81.60;;;;;;5125481;28;20020;-52
2021/11/13 01:16:53;;;;;;;33.33;7.63;;;28.70;81.30;;;;;;5125357;28;20083;-44
2021/11/13 01:19:20;;;;;;;29.80;7.55;;;28.80;81.60;;;;;;5124802;28;20079;-50
2021/11/13 01:21:47;;;;;;;95.50;12.93;;;28.70;81.50;;;;;;5124640;28;20011;-47
2021/11/13 01:24:14;;;;;;;53.72;8.88;;;28.70;81.40;;;;;;5125190;28;20286;-52
2021/11/13 01:26:40;;;;;;;38.90;9.10;;;28.70;81.20;;;;;;5125038;28;20020;-49
2021/11/13 01:29:07;;;;;;;41.17;8.20;;;28.70;81.30;;;;;;5125560;28;20086;-51
2021/11/13 01:31:34;;;;;;;36.53;7.88;;;28.70;81.00;;;;;;5107124;28;20015;-52
2021/11/13 01:34:00;;;;;;;26.70;7.80;;;28.70;81.00;;;;;;5125002;28;20090;-53
2021/11/13 01:36:27;;;;;;;21.83;7.47;;;28.70;81.00;;;;;;5123940;28;20011;-53
2021/11/13 01:38:54;;;;;;;26.55;7.07;;;28.60;81.10;;;;;;5124906;28;20237;-51
2021/11/13 01:41:22;;;;;;;21.50;6.68;;;28.60;81.00;;;;;;5124850;28;20065;-53
2021/11/13 01:43:49;;;;;;;21.42;6.53;;;28.60;80.90;;;;;;5124845;28;20107;-55
2021/11/13 01:46:15;;;;;;;16.85;6.07;;;28.60;80.90;;;;;;5124790;28;20035;-53
2021/11/13 01:48:42;;;;;;;17.10;6.25;;;28.60;80.80;;;;;;5125116;28;20032;-50
2021/11/13 01:51:28;;;;;;;13.88;6.30;;;28.60;80.90;;;;;;5124278;28;20023;-51
2021/11/13 01:54:00;;;;;;;15.38;6.50;;;28.50;80.80;;;;;;5124557;28;20243;-49
2021/11/13 01:56:27;;;;;;;14.80;6.97;;;28.50;80.90;;;;;;5124237;28;20019;-49
2021/11/13 01:58:57;;;;;;;19.77;9.00;;;28.50;80.70;;;;;;5124682;28;20031;-52
2021/11/13 02:01:25;;;;;;;17.75;7.88;;;28.50;80.80;;;;;;5124721;28;20023;-49
2021/11/13 02:03:52;;;;;;;15.52;8.05;;;28.50;80.80;;;;;;5124645;28;20324;-50
2021/11/13 02:06:20;;;;;;;17.45;8.00;;;28.50;80.80;;;;;;5124271;28;20177;-52
2021/11/13 02:08:48;;;;;;;15.75;7.53;;;28.40;80.70;;;;;;5124585;28;20208;-49
2021/11/13 02:11:18;;;;;;;15.35;6.72;;;28.40;80.70;;;;;;5124270;28;20019;-51
2021/11/13 02:13:45;;;;;;;16.38;6.57;;;28.40;80.50;;;;;;5124508;28;20028;-43
2021/11/13 02:16:12;;;;;;;16.48;6.18;;;28.40;80.30;;;;;;5124309;28;20016;-47
2021/11/13 02:18:42;;;;;;;15.70;6.43;;;28.40;80.20;;;;;;5123840;28;20094;-53
2021/11/13 02:21:09;;;;;;;12.30;5.88;;;28.40;80.20;;;;;;5124234;28;20016;-50
2021/11/13 02:23:37;;;;;;;19.52;6.70;;;28.40;80.30;;;;;;5124446;28;20024;-43
2021/11/13 02:26:04;;;;;;;11.52;5.72;;;28.40;80.30;;;;;;5124040;28;20016;-51
2021/11/13 02:28:35;;;;;;;12.15;6.38;;;28.40;80.00;;;;;;5124496;28;20028;-51
2021/11/13 02:31:05;;;;;;;15.07;5.65;;;28.40;79.90;;;;;;5124255;28;20020;-51
2021/11/13 02:33:31;;;;;;;10.20;5.07;;;28.40;79.80;;;;;;5124722;28;20028;-51
2021/11/13 02:35:59;;;;;;;15.32;5.72;;;28.40;79.80;;;;;;5124298;28;20019;-50
2021/11/13 02:38:37;;;;;;;12.57;5.60;;;28.40;79.70;;;;;;5124001;28;20296;-52
2021/11/13 02:41:06;;;;;;;11.65;5.75;;;28.40;79.70;;;;;;5124311;28;20019;-52
2021/11/13 02:43:34;;;;;;;12.23;5.28;;;28.30;79.50;;;;;;5124775;28;20023;-51
2021/11/13 02:46:03;;;;;;;14.90;5.32;;;28.30;79.10;;;;;;5123883;28;20026;-52
2021/11/13 02:48:35;;;;;;;15.23;5.30;;;28.30;79.00;;;;;;5124330;28;20023;-51
2021/11/13 02:51:02;;;;;;;12.15;5.45;;;28.30;79.00;;;;;;5128251;28;20154;-47
2021/11/13 02:53:29;;;;;;;12.18;5.00;;;28.30;79.00;;;;;;5127773;28;20047;-50
2021/11/13 02:55:59;;;;;;;11.50;5.15;;;28.30;78.70;;;;;;5127735;28;20039;-51
2021/11/13 02:58:26;;;;;;;15.32;5.05;;;28.30;78.70;;;;;;5127630;28;20339;-55
2021/11/13 03:00:57;;;;;;;10.90;4.68;;;28.30;78.70;;;;;;5127670;28;20015;-51
2021/11/13 03:03:24;;;;;;;10.35;5.00;;;28.20;78.50;;;;;;5127348;28;20019;-52
2021/11/13 03:05:54;;;;;;;12.23;6.15;;;28.20;78.50;;;;;;5127716;28;20023;-53
2021/11/13 03:08:30;;;;;;;14.30;6.03;;;28.20;78.20;;;;;;5127662;28;20055;-51
2021/11/13 03:11:00;;;;;;;12.90;5.72;;;28.20;78.40;;;;;;5127377;28;20020;-45
2021/11/13 03:13:29;;;;;;;10.88;5.15;;;28.20;78.50;;;;;;5127356;28;20027;-43
2021/11/13 03:15:56;;;;;;;13.38;5.47;;;28.10;78.20;;;;;;5127631;28;20311;-48
2021/11/13 03:18:23;;;;;;;14.75;5.18;;;28.10;78.30;;;;;;5127176;28;20027;-48
2021/11/13 03:20:50;;;;;;;10.32;5.03;;;28.10;78.40;;;;;;5127131;28;20204;-46
2021/11/13 03:23:18;;;;;;;12.88;5.30;;;28.10;78.30;;;;;;5127501;28;20031;-47
2021/11/13 03:25:57;;;;;;;8.45;4.85;;;28.10;78.30;;;;;;5127224;28;20381;-45
2021/11/13 03:28:25;;;;;;;13.13;4.82;;;28.10;78.30;;;;;;5127228;28;20024;-46
2021/11/13 03:30:52;;;;;;;12.07;5.03;;;28.10;78.20;;;;;;5127095;28;20317;-51
2021/11/13 03:33:19;;;;;;;11.52;5.53;;;28.10;78.20;;;;;;5109297;28;20027;-58
2021/11/13 03:35:46;;;;;;;8.55;5.20;;;28.00;78.20;;;;;;5127322;28;20020;-51
2021/11/13 03:38:16;;;;;;;9.88;5.00;;;28.00;78.30;;;;;;5126950;28;20370;-50
2021/11/13 03:40:46;;;;;;;9.85;4.70;;;28.10;78.20;;;;;;5126664;28;20030;-40
2021/11/13 03:43:14;;;;;;;12.50;5.20;;;28.00;78.20;;;;;;5127092;28;20279;-53
2021/11/13 03:45:42;;;;;;;11.55;4.90;;;28.00;78.20;;;;;;5127531;28;20031;-47
2021/11/13 03:48:09;;;;;;;9.90;5.30;;;28.00;78.20;;;;;;5126991;28;20024;-50
2021/11/13 03:50:35;;;;;;;12.95;4.80;;;28.00;78.10;;;;;;5127123;28;20084;-49
2021/11/13 03:53:04;;;;;;;9.48;4.72;;;28.00;78.10;;;;;;5126723;28;20048;-45
2021/11/13 03:55:32;;;;;;;8.18;4.40;;;27.90;78.20;;;;;;5126776;28;20079;-46
2021/11/13 03:57:59;;;;;;;8.82;4.65;;;27.90;78.30;;;;;;5126430;28;20028;-53
2021/11/13 04:00:27;;;;;;;10.60;5.18;;;27.90;78.20;;;;;;5126476;28;20019;-54
2021/11/13 04:02:54;;;;;;;11.70;5.15;;;27.90;78.30;;;;;;5126696;28;20024;-46
2021/11/13 04:05:22;;;;;;;13.43;5.35;;;27.90;78.50;;;;;;5126801;28;20050;-53
2021/11/13 04:07:50;;;;;;;10.52;6.65;;;27.90;78.50;;;;;;5126728;28;20019;-47
2021/11/13 04:10:17;;;;;;;15.85;6.95;;;27.80;78.20;;;;;;5126762;28;20058;-53
2021/11/13 04:12:44;;;;;;;10.50;7.00;;;27.80;78.30;;;;;;5125804;28;20035;-52
2021/11/13 04:15:12;;;;;;;19.08;7.00;;;27.80;78.50;;;;;;5123299;28;20355;-44
2021/11/13 04:17:39;;;;;;;16.10;6.18;;;27.80;78.40;;;;;;5124657;28;20023;-46
2021/11/13 04:20:08;;;;;;;12.43;6.20;;;27.80;78.10;;;;;;5125074;28;20320;-44
2021/11/13 04:22:35;;;;;;;16.85;6.38;;;27.80;78.10;;;;;;5125092;28;20024;-49
2021/11/13 04:25:03;;;;;;;12.13;5.47;;;27.80;78.20;;;;;;5125150;28;20273;-51
2021/11/13 04:27:30;;;;;;;12.80;5.47;;;27.80;78.10;;;;;;5125055;28;20027;-49
2021/11/13 04:29:57;;;;;;;10.05;5.82;;;27.80;78.00;;;;;;5125263;28;20015;-50
2021/11/13 04:32:28;;;;;;;10.25;4.82;;;27.80;77.80;;;;;;5125458;28;20265;-49
2021/11/13 04:37:23;;;;;;;15.82;4.97;;;27.80;77.60;;;;;;5122555;28;20012;-46
2021/11/13 04:39:50;;;;;;;11.65;4.82;;;27.80;77.60;;;;;;5122241;28;20027;-51
2021/11/13 04:42:17;;;;;;;6.13;4.20;;;27.70;77.70;;;;;;5124765;28;20039;-51
2021/11/13 04:44:46;;;;;;;8.30;4.82;;;27.70;77.60;;;;;;5125885;28;20251;-51
2021/11/13 04:47:13;;;;;;;10.10;4.03;;;27.70;77.40;;;;;;5125229;28;20023;-49
2021/11/13 04:49:44;;;;;;;11.90;4.35;;;27.70;77.50;;;;;;5109896;28;20372;-49
2021/11/13 04:52:10;;;;;;;7.82;4.10;;;27.70;77.60;;;;;;5104754;28;20240;-45
2021/11/13 04:54:37;;;;;;;8.73;4.32;;;27.70;77.70;;;;;;5105204;28;20027;-52
2021/11/13 04:57:08;;;;;;;6.38;4.45;;;27.70;77.70;;;;;;5104834;28;20049;-47
2021/11/13 04:59:34;;;;;;;5.80;4.32;;;27.70;78.00;;;;;;5105249;28;20065;-52
2021/11/13 05:02:04;;;;;;;7.25;4.10;;;27.70;78.00;;;;;;5121205;28;20026;-51
2021/11/13 05:04:31;;;;;;;8.57;4.38;;;27.70;78.20;;;;;;5125667;28;20073;-51
2021/11/13 05:06:58;;;;;;;9.98;4.53;;;27.70;78.20;;;;;;5124903;28;20316;-55
2021/11/13 05:09:24;;;;;;;8.43;4.22;;;27.70;78.20;;;;;;5125439;28;20060;-50
2021/11/13 05:11:51;;;;;;;6.43;4.30;;;27.70;78.30;;;;;;5124095;28;20011;-49
2021/11/13 05:14:17;;;;;;;9.93;4.20;;;27.70;78.20;;;;;;5125307;28;20023;-49
2021/11/13 05:16:44;;;;;;;12.82;4.75;;;27.60;78.30;;;;;;5125095;28;20031;-53
2021/11/13 05:19:11;;;;;;;6.50;4.32;;;27.60;78.60;;;;;;5125263;28;20094;-50
2021/11/13 05:21:38;;;;;;;10.23;4.75;;;27.60;78.70;;;;;;5125028;28;20050;-50
2021/11/13 05:24:07;;;;;;;9.68;4.45;;;27.60;78.90;;;;;;5125153;28;20038;-50
2021/11/13 05:26:34;;;;;;;9.80;4.85;;;27.60;78.80;;;;;;5115699;28;20016;-50
2021/11/13 05:29:04;;;;;;;7.68;4.40;;;27.50;78.70;;;;;;5125047;28;20034;-55
2021/11/13 05:31:31;;;;;;;7.85;4.30;;;27.50;78.70;;;;;;5124624;28;20027;-55
2021/11/13 05:33:57;;;;;;;7.13;4.10;;;27.50;79.20;;;;;;5124352;28;20039;-50
2021/11/13 05:36:24;;;;;;;10.02;4.90;;;27.50;79.10;;;;;;5124507;28;20110;-53
2021/11/13 05:38:52;;;;;;;11.07;5.50;;;27.50;79.30;;;;;;5124794;28;20057;-51
2021/11/13 05:41:18;;;;;;;12.10;5.15;;;27.50;79.20;;;;;;5124606;28;20011;-49
2021/11/13 05:43:45;;;;;;;12.15;5.28;;;27.50;79.30;;;;;;5124912;28;20023;-51
2021/11/13 05:46:11;;;;;;;9.73;5.15;;;27.50;79.20;;;;;;5124553;28;20023;-51
2021/11/13 05:48:38;;;;;;;9.98;4.90;;;27.40;79.30;;;;;;5124727;28;20073;-55
2021/11/13 05:51:05;;;;;;;9.38;4.70;;;27.40;79.50;;;;;;5124506;28;20026;-49
2021/11/13 05:53:32;;;;;;;11.35;5.22;;;27.40;79.40;;;;;;5124431;28;20043;-53
2021/11/13 05:55:59;;;;;;;8.85;4.30;;;27.40;79.40;;;;;;5124409;28;20286;-44
2021/11/13 05:58:26;;;;;;;9.23;4.50;;;27.30;79.20;;;;;;5124354;28;20027;-48
2021/11/13 06:00:52;;;;;;;7.60;4.88;;;27.40;79.30;;;;;;5124342;28;20015;-46
2021/11/13 06:03:19;;;;;;;9.20;5.03;;;27.30;79.20;;;;;;5124538;28;20030;-48
2021/11/13 06:05:45;;;;;;;8.00;4.65;;;27.30;79.20;;;;;;5124444;28;20034;-45
2021/11/13 06:08:12;;;;;;;11.45;5.10;;;27.30;79.30;;;;;;5124395;28;20076;-51
2021/11/13 06:10:39;;;;;;;7.07;4.32;;;27.30;79.40;;;;;;5124420;28;20087;-51
2021/11/13 06:13:06;;;;;;;8.95;4.45;;;27.30;79.40;;;;;;5124332;28;20292;-45
2021/11/13 06:15:33;;;;;;;9.65;4.38;;;27.30;79.60;;;;;;5124081;28;20018;-51
2021/11/13 06:17:59;;;;;;;8.95;4.57;;;27.30;79.60;;;;;;5124252;28;20027;-47
2021/11/13 06:20:26;;;;;;;7.18;4.40;;;27.20;79.40;;;;;;5124202;28;20276;-48
2021/11/13 06:22:54;;;;;;;12.00;5.20;;;27.20;80.00;;;;;;5124857;28;20024;-55
2021/11/13 06:25:20;;;;;;;6.57;4.68;;;27.20;79.50;;;;;;5128434;28;20058;-53
2021/11/13 06:27:47;;;;;;;7.72;4.53;;;27.20;78.90;;;;;;5128490;28;20045;-50
2021/11/13 06:30:15;;;;;;;8.73;4.70;;;27.20;78.60;;;;;;5128025;28;20015;-44
2021/11/13 06:32:43;;;;;;;7.75;4.15;;;27.20;78.30;;;;;;5128047;28;20035;-46
2021/11/13 06:35:10;;;;;;;9.80;4.82;;;27.20;78.10;;;;;;5128107;28;20071;-52
2021/11/13 06:37:38;;;;;;;8.63;4.75;;;27.20;78.20;;;;;;5127879;28;20015;-50
2021/11/13 06:40:06;;;;;;;6.60;4.47;;;27.20;77.80;;;;;;5128129;28;20016;-51
2021/11/13 06:42:36;;;;;;;7.15;4.05;;;27.20;78.10;;;;;;5110049;28;20023;-51
2021/11/13 06:45:04;;;;;;;9.55;4.72;;;27.20;78.00;;;;;;5127877;28;20019;-49
2021/11/13 06:47:31;;;;;;;8.32;4.47;;;27.10;78.10;;;;;;5127786;28;20016;-49
2021/11/13 06:49:58;;;;;;;11.00;4.70;;;27.20;78.00;;;;;;5128044;28;20051;-52
2021/11/13 06:52:25;;;;;;;7.75;3.97;;;27.10;77.60;;;;;;5127420;28;20397;-45
2021/11/13 06:54:51;;;;;;;7.05;4.35;;;27.20;77.60;;;;;;5128257;28;20032;-49
2021/11/13 06:57:18;;;;;;;7.70;4.40;;;27.20;77.40;;;;;;5127608;28;20090;-50
2021/11/13 06:59:45;;;;;;;8.80;4.15;;;27.20;77.30;;;;;;5128204;28;20222;-52
2021/11/13 07:02:11;;;;;;;7.60;4.22;;;27.10;77.30;;;;;;5127503;28;20039;-49
2021/11/13 07:04:38;;;;;;;5.85;3.90;;;27.10;77.30;;;;;;5127976;28;20231;-48
2021/11/13 07:07:05;;;;;;;8.13;4.15;;;27.20;77.30;;;;;;5127307;28;20064;-51
2021/11/13 07:09:31;;;;;;;8.05;4.20;;;27.10;77.20;;;;;;5128052;28;20035;-46
2021/11/13 07:11:58;;;;;;;7.65;4.32;;;27.10;77.40;;;;;;5127390;28;20015;-48
2021/11/13 07:14:24;;;;;;;8.45;3.78;;;27.20;77.00;;;;;;5127619;28;20024;-48
2021/11/13 07:16:51;;;;;;;6.22;3.80;;;27.10;77.00;;;;;;5127266;28;20121;-47
2021/11/13 07:19:17;;;;;;;7.40;3.80;;;27.10;76.80;;;;;;5127270;28;20038;-52
2021/11/13 07:21:44;;;;;;;9.40;3.80;;;27.10;76.70;;;;;;5127102;28;20045;-48
2021/11/13 07:24:11;;;;;;;11.88;3.90;;;27.10;76.70;;;;;;5127410;28;20095;-50
2021/11/13 07:26:38;;;;;;;8.38;4.00;;;27.10;76.70;;;;;;5127172;28;20064;-51
2021/11/13 07:29:06;;;;;;;7.95;4.07;;;27.10;76.60;;;;;;5127143;28;20072;-50
2021/11/13 07:31:34;;;;;;;8.75;3.92;;;27.10;76.60;;;;;;5126977;28;20030;-48
2021/11/13 07:34:01;;;;;;;9.40;4.13;;;27.10;76.50;;;;;;5127082;28;20034;-50
2021/11/13 07:36:28;;;;;;;7.07;3.90;;;27.10;76.60;;;;;;5126167;28;20090;-50
2021/11/13 07:38:55;;;;;;;7.07;3.70;;;27.00;76.50;;;;;;5127006;28;20041;-48
2021/11/13 07:41:23;;;;;;;8.00;3.85;;;27.00;76.30;;;;;;5127003;28;20015;-57
2021/11/13 07:43:50;;;;;;;6.43;3.60;;;27.00;76.20;;;;;;5126808;28;20038;-50
2021/11/13 07:46:18;;;;;;;6.18;3.83;;;27.10;76.30;;;;;;5127127;28;20023;-47
2021/11/13 07:48:44;;;;;;;8.52;3.92;;;27.00;76.40;;;;;;5126870;28;20058;-52
2021/11/13 07:51:11;;;;;;;7.68;3.92;;;27.00;76.60;;;;;;5126432;28;20024;-50
2021/11/13 07:53:38;;;;;;;7.50;4.22;;;27.00;76.70;;;;;;5126766;28;20034;-50
2021/11/13 07:56:05;;;;;;;5.35;3.70;;;27.00;76.70;;;;;;5127004;28;20275;-51
2021/11/13 07:58:31;;;;;;;8.60;3.50;;;27.00;76.50;;;;;;5126592;28;20024;-47
2021/11/13 08:00:58;;;;;;;9.57;4.00;;;27.00;76.40;;;;;;5126534;28;20023;-51
2021/11/13 08:03:25;;;;;;;7.57;4.22;;;27.00;76.20;;;;;;5126690;28;20027;-48
2021/11/13 08:05:52;;;;;;;8.32;3.95;;;27.00;76.20;;;;;;5126343;28;20023;-53
2021/11/13 08:08:18;;;;;;;6.93;3.92;;;27.00;76.50;;;;;;5126374;28;20336;-51
2021/11/13 08:10:46;;;;;;;6.30;3.85;;;26.90;75.90;;;;;;5126274;28;20039;-50
2021/11/13 08:13:15;;;;;;;7.68;4.20;;;26.90;76.00;;;;;;5126144;28;20039;-46
2021/11/13 08:15:42;;;;;;;6.45;4.10;;;26.90;75.90;;;;;;5126588;28;20069;-49
2021/11/13 08:18:10;;;;;;;6.65;3.97;;;26.90;75.80;;;;;;5126124;28;20023;-47
2021/11/13 08:20:39;;;;;;;7.63;3.90;;;26.90;75.80;;;;;;5125876;28;20064;-53
2021/11/13 08:23:08;;;;;;;8.20;3.88;;;26.90;75.90;;;;;;5126132;28;20296;-49
2021/11/13 08:25:37;;;;;;;5.70;3.55;;;26.90;76.00;;;;;;5126315;28;20125;-48
2021/11/13 08:28:05;;;;;;;5.13;3.50;;;26.90;75.90;;;;;;5125915;28;20035;-47
2021/11/13 08:30:33;;;;;;;6.03;3.67;;;26.90;75.90;;;;;;5125896;28;20030;-49
2021/11/13 08:33:01;;;;;;;5.85;3.50;;;26.90;75.90;;;;;;5125817;28;20058;-52
2021/11/13 08:35:29;;;;;;;4.68;3.60;;;26.90;75.80;;;;;;5125832;28;20020;-51
2021/11/13 08:37:56;;;;;;;7.63;3.80;;;26.90;75.80;;;;;;5125588;28;20077;-51
2021/11/13 08:40:23;;;;;;;4.95;3.63;;;26.90;75.80;;;;;;5125586;28;20091;-55
2021/11/13 08:42:49;;;;;;;7.28;3.42;;;26.80;75.60;;;;;;5125568;28;20219;-48
2021/11/13 08:45:16;;;;;;;5.68;3.60;;;26.80;75.80;;;;;;5125523;28;20031;-51
2021/11/13 08:47:43;;;;;;;4.97;3.45;;;26.80;75.70;;;;;;5125392;28;20023;-50
2021/11/13 08:50:18;;;;;;;6.15;3.42;;;26.80;75.70;;;;;;5125503;28;20023;-46
2021/11/13 08:52:47;;;;;;;8.73;3.55;;;26.80;75.50;;;;;;5125315;28;20232;-48
2021/11/13 08:55:15;;;;;;;10.38;3.72;;;26.80;75.70;;;;;;5125371;28;20023;-42
2021/11/13 08:57:43;;;;;;;5.22;3.60;;;26.80;75.70;;;;;;5125215;28;20019;-46
2021/11/13 09:00:13;;;;;;;6.63;3.72;;;26.80;75.70;;;;;;5125255;28;20047;-46
2021/11/13 09:02:40;;;;;;;6.00;3.88;;;26.80;75.80;;;;;;5125398;28;20216;-46
2021/11/13 09:05:09;;;;;;;7.97;3.40;;;26.80;75.80;;;;;;5125124;28;20031;-46
2021/11/13 09:07:36;;;;;;;7.38;3.65;;;26.80;75.90;;;;;;5125166;28;20015;-45
2021/11/13 09:10:04;;;;;;;8.05;3.80;;;26.80;75.80;;;;;;5125250;28;20043;-50
2021/11/13 09:12:32;;;;;;;8.02;4.10;;;26.80;75.80;;;;;;5125011;28;20024;-47
2021/11/13 09:15:14;;;;;;;8.55;4.05;;;26.80;75.80;;;;;;5106937;28;20020;-51
2021/11/13 09:17:41;;;;;;;8.00;3.63;;;26.80;75.80;;;;;;5124924;28;20012;-50
2021/11/13 09:20:08;;;;;;;6.65;3.95;;;26.80;75.90;;;;;;5124942;28;20024;-49
2021/11/13 09:22:36;;;;;;;6.60;3.80;;;26.70;75.70;;;;;;5124746;28;20019;-50
2021/11/13 09:25:08;;;;;;;8.73;3.80;;;26.80;75.60;;;;;;5124868;28;20024;-54
2021/11/13 09:27:37;;;;;;;7.75;3.78;;;26.70;75.30;;;;;;5124905;28;20176;-45
2021/11/13 09:30:06;;;;;;;7.43;3.65;;;26.70;75.30;;;;;;5106746;28;20031;-51
2021/11/13 09:32:34;;;;;;;10.00;3.67;;;26.70;75.30;;;;;;5124582;28;20020;-43
2021/11/13 09:35:00;;;;;;;6.75;3.50;;;26.70;75.10;;;;;;5124900;28;20023;-48
2021/11/13 09:37:29;;;;;;;6.45;3.20;;;26.80;75.20;;;;;;5124609;28;20075;-53
2021/11/13 09:39:56;;;;;;;6.32;3.25;;;26.70;75.10;;;;;;5116503;28;20215;-48
2021/11/13 09:42:23;;;;;;;5.82;3.72;;;26.70;74.90;;;;;;5124785;28;20024;-46
2021/11/13 09:44:50;;;;;;;7.75;3.42;;;26.70;74.60;;;;;;5125102;28;20027;-56
2021/11/13 09:47:18;;;;;;;7.90;3.47;;;26.70;74.60;;;;;;5124570;28;20375;-52
2021/11/13 09:49:45;;;;;;;8.10;3.50;;;26.70;74.70;;;;;;5124566;28;20339;-48
2021/11/13 09:52:13;;;;;;;5.80;3.35;;;26.70;74.50;;;;;;5124356;28;20114;-49
2021/11/13 09:54:42;;;;;;;5.80;3.33;;;26.70;74.50;;;;;;5124958;28;20028;-49
2021/11/13 09:57:09;;;;;;;4.53;3.22;;;26.70;74.40;;;;;;5124389;28;20024;-49
2021/11/13 09:59:36;;;;;;;7.85;3.70;;;26.70;74.30;;;;;;5124925;28;20043;-45
2021/11/13 10:02:04;;;;;;;7.20;3.72;;;26.70;74.30;;;;;;5124360;28;20024;-55
2021/11/13 10:04:31;;;;;;;7.57;3.58;;;26.60;74.20;;;;;;5124923;28;20012;-48
2021/11/13 10:06:57;;;;;;;9.43;3.30;;;26.60;74.30;;;;;;5124258;28;20023;-48
2021/11/13 10:09:24;;;;;;;5.68;3.60;;;26.60;74.30;;;;;;5124592;28;20087;-50
2021/11/13 10:11:53;;;;;;;5.15;3.47;;;26.60;74.20;;;;;;5124410;28;20023;-50
2021/11/13 10:14:40;;;;;;;6.15;3.58;;;26.60;74.10;;;;;;5124707;28;20032;-46
2021/11/13 10:17:27;;;;;;;7.18;3.75;;;26.60;74.10;;;;;;5124430;28;20086;-51
2021/11/13 10:19:54;;;;;;;6.50;3.90;;;26.70;74.20;;;;;;5124425;28;20027;-45
2021/11/13 10:22:21;;;;;;;5.72;3.67;;;26.60;74.20;;;;;;5124109;28;20332;-49
2021/11/13 10:24:53;;;;;;;8.07;3.75;;;26.60;74.20;;;;;;5124629;28;20028;-49
2021/11/13 10:27:21;;;;;;;15.85;3.50;;;26.60;74.20;;;;;;5124187;28;20020;-52
2021/11/13 10:29:48;;;;;;;6.25;3.33;;;26.60;74.20;;;;;;5124635;28;20024;-45
2021/11/13 10:32:19;;;;;;;8.60;4.45;;;26.60;74.30;;;;;;5123883;28;20060;-53
2021/11/13 10:34:51;;;;;;;6.68;3.53;;;26.60;74.80;;;;;;5124208;28;20065;-46
2021/11/13 10:37:22;;;;;;;;;;;26.60;74.10;;;;;;5122762;28;20020;-42
2021/11/13 10:39:49;;;;;;;5.78;3.38;;;26.60;74.20;;;;;;5124293;28;19908;-51
2021/11/13 10:42:22;;;;;;;10.52;4.22;;;26.50;74.20;;;;;;5124055;28;20020;-50
2021/11/13 10:44:58;;;;;;;8.55;4.57;;;26.50;74.30;;;;;;5124701;28;20031;-53
2021/11/13 10:47:41;;;;;;;7.95;3.85;;;26.50;74.20;;;;;;5099269;28;20024;-51
2021/11/13 10:50:19;;;;;;;11.90;4.65;;;26.60;74.30;;;;;;5123994;28;20220;-46
2021/11/13 10:53:08;;;;;;;9.55;6.15;;;26.50;74.60;;;;;;5123536;28;20039;-53
2021/11/13 10:55:39;;;;;;;15.90;8.63;;;26.40;74.90;;;;;;5112276;28;20061;-50
2021/11/13 10:58:36;;;;;;;14.35;8.25;;;26.50;75.30;;;;;;5118543;28;20031;-50
2021/11/13 11:01:08;;;;;;;19.08;8.05;;;26.50;75.70;;;;;;5116554;28;20011;-53
2021/11/13 11:03:40;;;;;;;19.30;7.25;;;26.50;76.00;;;;;;5123902;28;20066;-51
2021/11/13 11:06:07;;;;;;;;;;;26.40;76.40;;;;;;5110650;28;20048;-52
2021/11/13 11:08:41;;;;;;;24.45;8.18;;;26.40;76.60;;;;;;5083609;28;19971;-55
2021/11/13 11:11:26;;;;;;;24.20;8.82;;;26.40;76.50;;;;;;5103678;28;20024;-52
2021/11/13 11:13:54;;;;;;;44.78;9.52;;;26.40;76.80;;;;;;5106960;28;20031;-56
2021/11/13 11:16:41;;;;;;;46.85;10.00;;;26.40;77.00;;;;;;5101912;28;20039;-47
2021/11/13 11:19:13;;;;;;;59.85;10.43;;;26.40;77.30;;;;;;5107385;28;20027;-54
2021/11/13 11:21:48;;;;;;;52.78;9.73;;;26.40;77.70;;;;;;5106901;28;20065;-56
2021/11/13 11:24:39;;;;;;;38.55;7.50;;;26.40;77.40;;;;;;5105152;28;20208;-53
2021/11/13 11:27:20;;;;;;;50.22;8.10;;;26.40;77.10;;;;;;5086668;28;20025;-52
2021/11/13 11:30:00;;;;;;;37.53;7.57;;;26.40;77.00;;;;;;5087023;28;20201;-51
2021/11/13 11:32:36;;;;;;;28.65;6.72;;;26.50;76.80;;;;;;5086101;28;20027;-56
2021/11/13 11:35:12;;;;;;;26.88;5.90;;;26.50;76.70;;;;;;5086234;28;20335;-53
2021/11/13 11:37:45;;;;;;;28.10;5.50;;;26.50;76.70;;;;;;5105154;28;20032;-53
2021/11/13 11:40:20;;;;;;;25.88;5.65;;;26.60;76.70;;;;;;5105474;28;20016;-47
2021/11/13 11:42:49;;;;;;;55.30;6.35;;;26.60;77.30;;;;;;5113902;28;20027;-46
2021/11/13 11:45:21;;;;;;;29.02;6.28;;;26.70;77.10;;;;;;5099804;28;20024;-47
2021/11/13 11:47:53;;;;;;;45.35;6.55;;;26.70;77.10;;;;;;5104622;28;20087;-47
2021/11/13 11:50:25;;;;;;;34.60;6.00;;;26.70;77.50;;;;;;5104426;28;20031;-46
2021/11/13 11:52:54;;;;;;;18.38;4.93;;;26.80;77.50;;;;;;5116862;28;20055;-50
2021/11/13 11:55:21;;;;;;;23.58;5.45;;;26.80;77.50;;;;;;5126265;28;20016;-42
2021/11/13 11:58:15;;;;;;;25.08;5.22;;;26.80;77.50;;;;;;5128299;27;20061;-46
2021/11/13 12:00:44;;;;;;;29.60;6.00;;;26.90;77.70;;;;;;5103218;28;20028;-47
2021/11/13 12:03:22;;;;;;;21.45;5.10;;;26.90;77.80;;;;;;5105893;28;20020;-50
2021/11/13 12:05:51;;;;;;;18.88;5.13;;;26.90;77.90;;;;;;5121462;27;20060;-47
2021/11/13 12:08:21;;;;;;;19.05;5.25;;;27.00;78.00;;;;;;5133289;27;20038;-50
2021/11/13 12:10:47;;;;;;;22.67;5.30;;;27.00;78.10;;;;;;5126420;28;20331;-46
2021/11/13 12:13:23;;;;;;;21.58;5.45;;;27.10;78.20;;;;;;5128763;27;20036;-44
2021/11/13 12:15:55;;;;;;;20.27;5.50;;;27.10;78.20;;;;;;5141222;27;20315;-46
2021/11/13 12:18:23;;;;;;;20.47;4.83;;;27.10;78.00;;;;;;5146617;27;20023;-49
2021/11/13 12:21:03;;;;;;;17.27;4.95;;;27.20;78.10;;;;;;5146489;27;20056;-45
2021/11/13 12:23:50;;;;;;;16.25;4.97;;;27.20;78.30;;;;;;5146968;27;20027;-49
2021/11/13 12:26:30;;;;;;;22.50;5.38;;;27.20;78.30;;;;;;5146570;27;20023;-48
2021/11/13 12:28:58;;;;;;;17.90;4.97;;;27.30;78.10;;;;;;5146857;27;20098;-46
2021/11/13 12:31:43;;;;;;;12.98;4.47;;;27.30;78.20;;;;;;5146493;27;20019;-49
2021/11/13 12:34:18;;;;;;;14.10;4.82;;;27.30;78.50;;;;;;5123973;27;20027;-50
2021/11/13 12:37:04;;;;;;;22.42;4.70;;;27.40;78.30;;;;;;5126016;27;20020;-46
2021/11/13 12:39:56;;;;;;;15.00;4.88;;;27.40;78.30;;;;;;5114443;28;20019;-50
2021/11/13 12:42:27;;;;;;;;;;;27.40;78.30;;;;;;5118455;27;20023;-50
2021/11/13 12:45:00;;;;;;;11.82;4.05;;;27.50;78.40;;;;;;5128897;27;19952;-46
2021/11/13 12:47:36;;;;;;;11.27;4.72;;;27.50;78.40;;;;;;5110734;28;20091;-46
2021/11/13 12:50:23;;;;;;;15.45;4.78;;;27.50;79.10;;;;;;5110893;28;20028;-49
2021/11/13 12:52:54;;;;;;;14.60;5.00;;;27.50;78.30;;;;;;5125243;28;20051;-49
2021/11/13 12:55:34;;;;;;;11.82;4.57;;;27.50;78.30;;;;;;5124967;28;20019;-54